Time;durP1;ratioP1;P1;durP2;ratioP2;P2;SDS_P1;SDS_P2;PMS_P1;PMS_P2;Temp;Humidity;BMP_temperature;BMP_pressure;BME280_temperature;BME280_humidity;BME280_pressure;Samples;Min_cycle;Max_cycle;Signal;HPM_P1;HPM_P2
2021/06/16 00:01:30;;;;;;;7.40;3.62;;;;;;;18.12;60.18;99717.84;4347020;33;20406;-84
2021/06/16 00:03:55;;;;;;;4.75;3.05;;;;;;;18.06;60.17;99719.09;4345602;33;20130;-85
2021/06/16 00:06:21;;;;;;;6.45;3.90;;;;;;;18.49;60.20;99712.84;4345135;33;21025;-85
2021/06/16 00:08:46;;;;;;;7.15;3.55;;;;;;;18.35;60.19;99709.31;4345552;33;20142;-84
2021/06/16 00:11:12;;;;;;;5.10;3.35;;;;;;;18.19;60.18;99713.03;4346951;33;20162;-85
2021/06/16 00:13:37;;;;;;;5.68;2.78;;;;;;;18.12;60.18;99714.38;4345470;33;20143;-85
2021/06/16 00:16:03;;;;;;;7.07;3.72;;;;;;;18.12;60.18;99727.53;4332444;33;33686;-85
2021/06/16 00:18:28;;;;;;;4.60;3.17;;;;;;;18.26;60.19;99748.59;4345466;33;20109;-85
2021/06/16 00:20:53;;;;;;;5.90;3.37;;;;;;;18.27;60.19;99735.31;4344658;33;28427;-85
2021/06/16 00:23:19;;;;;;;6.70;3.67;;;;;;;18.10;60.17;99748.72;4346160;33;22646;-85
2021/06/16 00:25:44;;;;;;;6.05;3.67;;;;;;;18.16;60.19;99745.69;4332336;33;27698;-84
2021/06/16 00:28:09;;;;;;;6.50;3.33;;;;;;;18.12;60.18;99748.63;4345319;33;20170;-84
2021/06/16 00:30:35;;;;;;;4.95;3.45;;;;;;;18.23;60.19;99743.53;4346689;33;20107;-85
2021/06/16 00:33:00;;;;;;;7.87;3.90;;;;;;;18.28;60.18;99744.06;4346674;33;20163;-87
2021/06/16 00:35:26;;;;;;;9.60;4.03;;;;;;;18.23;60.19;99733.84;4345601;33;20119;-86
2021/06/16 00:37:52;;;;;;;5.00;3.65;;;;;;;18.28;60.18;99739.66;4345575;33;20107;-87
2021/06/16 00:40:21;;;;;;;6.05;3.60;;;;;;;18.32;60.19;99737.66;4345807;33;20096;-87
2021/06/16 00:42:48;;;;;;;5.13;3.63;;;;;;;18.40;60.19;99738.84;4333166;33;20165;-87
2021/06/16 00:45:15;;;;;;;6.22;3.87;;;;;;;18.36;60.19;99739.16;4345534;33;20189;-86
2021/06/16 00:47:40;;;;;;;5.50;3.30;;;;;;;18.28;60.18;99738.81;4346043;33;20117;-87
2021/06/16 00:50:07;;;;;;;7.45;3.90;;;;;;;18.29;60.18;99737.84;4351068;33;20103;-87
2021/06/16 00:52:32;;;;;;;5.50;3.62;;;;;;;18.27;60.18;99734.47;4349223;33;20091;-87
2021/06/16 00:54:58;;;;;;;6.07;3.50;;;;;;;18.15;60.17;99744.00;4334393;33;28319;-88
2021/06/16 00:57:23;;;;;;;6.85;3.40;;;;;;;18.14;60.17;99741.47;4346702;33;24496;-88
2021/06/16 00:59:53;;;;;;;6.15;3.90;;;;;;;18.31;60.19;99738.59;4334606;33;20151;-87
2021/06/16 01:02:19;;;;;;;7.60;3.53;;;;;;;18.08;60.18;99735.63;4347356;33;20129;-87
2021/06/16 01:04:46;;;;;;;10.57;3.70;;;;;;;18.01;60.17;99733.50;4348068;33;20163;-86
2021/06/16 01:07:12;;;;;;;9.13;4.12;;;;;;;18.06;60.17;99729.63;4360473;33;20072;-88
2021/06/16 01:10:17;;;;;;;6.75;3.67;;;;;;;17.90;60.16;99739.41;4362858;32;20111;-88
2021/06/16 01:12:53;;;;;;;11.52;3.78;;;;;;;17.92;60.16;99739.31;4324383;33;20126;-87
2021/06/16 01:15:20;;;;;;;5.43;3.80;;;;;;;17.84;60.17;99737.16;4307610;33;20155;-87
2021/06/16 01:17:55;;;;;;;6.78;4.18;;;;;;;17.76;60.15;99734.19;4321562;33;20629;-87
2021/06/16 01:20:23;;;;;;;6.70;4.50;;;;;;;17.68;60.15;99733.78;4347064;33;20091;-87
2021/06/16 01:23:07;;;;;;;7.57;3.70;;;;;;;17.85;60.17;99730.12;4348344;33;20103;-88
2021/06/16 01:25:44;;;;;;;6.45;3.45;;;;;;;17.85;60.16;99728.31;4348216;33;20091;-87
2021/06/16 01:28:10;;;;;;;5.87;3.72;;;;;;;18.00;60.18;99732.66;4334500;33;20125;-88
2021/06/16 01:30:35;;;;;;;8.65;3.75;;;;;;;17.83;60.16;99738.12;4346955;33;20481;-89
2021/06/16 01:33:00;;;;;;;7.75;3.80;;;;;;;17.70;60.16;99737.16;4346199;33;33949;-88
2021/06/16 01:35:27;;;;;;;9.00;4.18;;;;;;;17.73;60.15;99732.56;4347072;33;20174;-88
2021/06/16 01:37:53;;;;;;;7.47;3.80;;;;;;;17.74;60.16;99733.41;4346899;33;20107;-87
2021/06/16 01:40:28;;;;;;;6.90;3.97;;;;;;;17.84;60.17;99736.31;4346541;33;20083;-87
2021/06/16 01:42:53;;;;;;;8.23;3.75;;;;;;;17.44;60.14;99739.56;4334577;33;20190;-87
2021/06/16 01:45:20;;;;;;;7.12;3.40;;;;;;;17.35;60.13;99732.25;4347026;33;20149;-87
2021/06/16 01:47:45;;;;;;;7.68;3.90;;;;;;;17.44;60.14;99736.94;4349041;33;20456;-87
2021/06/16 01:50:14;;;;;;;7.47;4.15;;;;;;;17.32;60.14;99727.16;4346804;33;20115;-86
2021/06/16 01:52:40;;;;;;;7.70;3.90;;;;;;;17.36;60.13;99723.41;4334221;33;20107;-87
2021/06/16 01:55:06;;;;;;;8.13;4.07;;;;;;;17.35;60.14;99731.41;4346198;33;24624;-86
2021/06/16 01:57:31;;;;;;;6.05;4.07;;;;;;;17.41;60.14;99731.88;4346705;33;20084;-87
2021/06/16 01:59:57;;;;;;;6.25;4.05;;;;;;;17.27;60.13;99728.34;4346435;33;20130;-87
2021/06/16 02:02:22;;;;;;;6.97;3.80;;;;;;;17.38;60.14;99734.69;4346731;33;20194;-87
2021/06/16 02:04:49;;;;;;;4.60;3.55;;;;;;;17.18;60.13;99730.59;4333760;33;27301;-86
2021/06/16 02:07:15;;;;;;;7.43;3.65;;;;;;;17.11;60.12;99731.91;4334502;33;20095;-87
2021/06/16 02:09:43;;;;;;;6.72;3.45;;;;;;;17.05;60.12;99739.34;4346905;33;20095;-87
2021/06/16 02:12:10;;;;;;;5.75;3.97;;;;;;;17.05;60.12;99731.44;4346832;33;20500;-86
2021/06/16 02:14:35;;;;;;;6.60;3.85;;;;;;;17.02;60.12;99736.84;4346756;33;20264;-87
2021/06/16 02:17:04;;;;;;;8.05;4.37;;;;;;;17.07;60.11;99735.66;4346681;33;20092;-86
2021/06/16 02:19:31;;;;;;;7.57;4.30;;;;;;;17.00;60.11;99746.62;4346522;32;20079;-87
2021/06/16 02:21:58;;;;;;;6.45;3.97;;;;;;;17.02;60.12;99748.22;4346579;33;20907;-86
2021/06/16 02:24:24;;;;;;;6.20;4.12;;;;;;;17.00;60.11;99738.72;4346504;33;20512;-86
2021/06/16 02:26:49;;;;;;;8.93;4.05;;;;;;;17.05;60.12;99736.69;4333868;33;20112;-87
2021/06/16 02:29:15;;;;;;;7.87;3.83;;;;;;;16.99;60.11;99743.13;4334695;33;20872;-85
2021/06/16 02:31:41;;;;;;;5.97;4.28;;;;;;;16.89;60.11;99731.47;4346621;33;20185;-87
2021/06/16 02:34:06;;;;;;;5.93;4.25;;;;;;;16.80;60.10;99738.12;4333934;33;20183;-86
2021/06/16 02:36:35;;;;;;;9.20;4.70;;;;;;;16.71;60.10;99738.62;4345731;33;26577;-86
2021/06/16 02:39:04;;;;;;;6.20;4.70;;;;;;;17.12;60.12;99736.25;4346297;33;20117;-88
2021/06/16 02:41:29;;;;;;;7.70;4.90;;;;;;;16.72;60.10;99740.34;4346286;33;20483;-86
2021/06/16 02:43:55;;;;;;;6.82;4.50;;;;;;;16.93;60.11;99740.03;4333113;33;36811;-86
2021/06/16 02:46:20;;;;;;;7.47;4.10;;;;;;;16.72;60.10;99737.69;4345648;33;26644;-87
2021/06/16 02:48:48;;;;;;;8.75;4.80;;;;;;;16.81;60.10;99728.47;4346598;33;20123;-86
2021/06/16 02:51:14;;;;;;;9.35;5.40;;;;;;;16.72;60.10;99745.59;4346343;33;20103;-86
2021/06/16 02:53:41;;;;;;;7.97;4.60;;;;;;;17.10;60.12;99745.16;4333854;33;20134;-87
2021/06/16 02:56:06;;;;;;;5.85;4.00;;;;;;;16.91;60.11;99742.75;4334411;33;20221;-89
2021/06/16 02:58:33;;;;;;;9.65;4.70;;;;;;;16.71;60.10;99746.53;4347510;33;28347;-88
2021/06/16 03:01:02;;;;;;;7.53;4.53;;;;;;;16.78;60.11;99754.91;4336420;33;20119;-88
2021/06/16 03:03:28;;;;;;;6.95;4.62;;;;;;;16.68;60.09;99759.00;4348839;33;20954;-88
2021/06/16 03:05:53;;;;;;;7.93;4.65;;;;;;;16.69;60.09;99751.03;4347017;33;21970;-88
2021/06/16 03:08:22;;;;;;;10.63;4.68;;;;;;;16.75;60.10;99755.06;4346456;33;20134;-88
2021/06/16 03:10:48;;;;;;;6.03;4.47;;;;;;;16.72;60.10;99756.09;4345221;33;20096;-88
2021/06/16 03:13:13;;;;;;;7.80;4.90;;;;;;;16.72;60.10;99766.63;4345508;33;34265;-88
2021/06/16 03:15:43;;;;;;;7.93;5.05;;;;;;;16.72;60.10;99763.13;4346140;33;20147;-89
2021/06/16 03:18:09;;;;;;;9.80;5.15;;;;;;;16.83;60.10;99771.28;4333923;33;20110;-88
2021/06/16 03:20:34;;;;;;;7.45;4.85;;;;;;;16.86;60.11;99774.56;4346396;33;20131;-88
2021/06/16 03:22:59;;;;;;;8.88;4.60;;;;;;;16.87;60.10;99765.75;4333909;33;20442;-89
2021/06/16 03:25:25;;;;;;;9.52;4.43;;;;;;;16.93;60.11;99777.69;4347199;33;20480;-88
2021/06/16 03:27:52;;;;;;;9.05;4.62;;;;;;;16.93;60.11;99769.81;4346025;33;20110;-89
2021/06/16 03:30:19;;;;;;;5.82;4.20;;;;;;;17.10;60.12;99774.09;4347485;33;20099;-89
2021/06/16 03:32:44;;;;;;;7.20;4.32;;;;;;;17.23;60.12;99769.78;4346036;33;20166;-88
2021/06/16 03:35:10;;;;;;;6.35;4.32;;;;;;;17.32;60.13;99764.00;4334134;33;21536;-89
2021/06/16 03:37:36;;;;;;;7.15;4.10;;;;;;;17.14;60.12;99772.97;4334545;33;20107;-86
2021/06/16 03:40:01;;;;;;;7.87;4.07;;;;;;;17.33;60.14;99770.09;4334222;33;20511;-88
2021/06/16 03:42:27;;;;;;;10.18;4.75;;;;;;;17.46;60.13;99771.06;4333889;33;20134;-88
2021/06/16 03:44:52;;;;;;;7.60;4.57;;;;;;;17.46;60.14;99774.53;4346455;33;20178;-88
2021/06/16 03:47:18;;;;;;;6.12;4.45;;;;;;;17.59;60.14;99776.44;4350466;33;20150;-87
2021/06/16 03:49:44;;;;;;;8.88;4.37;;;;;;;17.96;60.16;99770.63;4336156;33;20111;-87
2021/06/16 03:52:09;;;;;;;9.50;4.40;;;;;;;17.78;60.16;99772.63;4353097;33;20067;-88
2021/06/16 03:54:35;;;;;;;7.90;4.05;;;;;;;17.79;60.16;99773.47;4348648;33;26016;-89
2021/06/16 03:57:00;;;;;;;7.53;3.97;;;;;;;18.08;60.18;99775.16;4348368;33;20118;-88
2021/06/16 03:59:26;;;;;;;8.05;4.55;;;;;;;18.06;60.17;99781.47;4353665;33;20095;-87
2021/06/16 04:01:51;;;;;;;6.43;3.95;;;;;;;18.29;60.18;99785.28;4348005;33;36279;-86
2021/06/16 04:04:17;;;;;;;10.13;4.40;;;;;;;18.14;60.17;99788.88;4346163;33;20175;-87
2021/06/16 04:06:43;;;;;;;7.32;4.60;;;;;;;18.28;60.18;99781.81;4347670;33;20097;-86
2021/06/16 04:09:10;;;;;;;6.22;3.97;;;;;;;18.47;60.19;99789.41;4345945;33;20099;-87
2021/06/16 04:11:36;;;;;;;8.07;4.22;;;;;;;18.55;60.19;99791.53;4346016;33;20111;-88
2021/06/16 04:14:02;;;;;;;8.38;4.15;;;;;;;18.64;60.20;99786.53;4333557;33;20113;-88
2021/06/16 04:16:27;;;;;;;8.45;4.62;;;;;;;18.87;60.21;99789.47;4345547;33;28420;-88
2021/06/16 04:18:53;;;;;;;7.47;4.10;;;;;;;19.00;60.21;99793.00;4346108;33;20142;-88
2021/06/16 04:21:19;;;;;;;7.25;4.50;;;;;;;19.16;60.23;99788.37;4346413;33;20406;-88
2021/06/16 04:23:46;;;;;;;9.32;3.60;;;;;;;19.31;60.24;99783.88;4345617;33;20095;-88
2021/06/16 04:26:11;;;;;;;7.50;3.72;;;;;;;19.49;60.24;99785.28;4345614;33;20091;-88
2021/06/16 04:28:37;;;;;;;5.45;4.12;;;;;;;19.33;60.24;99781.97;4345386;33;20174;-87
2021/06/16 04:31:02;;;;;;;7.10;3.08;;;;;;;19.60;60.25;99790.69;4345656;33;20544;-87
2021/06/16 04:33:28;;;;;;;8.25;3.12;;;;;;;19.88;60.26;99789.66;4345730;33;20067;-88
2021/06/16 04:35:53;;;;;;;7.80;3.28;;;;;;;20.12;60.28;99780.97;4345571;33;20107;-87
2021/06/16 04:38:19;;;;;;;5.35;3.12;;;;;;;20.41;60.30;99778.91;4345770;33;20163;-88
2021/06/16 04:40:45;;;;;;;4.62;3.30;;;;;;;20.56;60.30;99779.56;4346600;33;20119;-88
2021/06/16 04:43:10;;;;;;;6.35;2.90;;;;;;;20.75;60.31;99790.50;4347358;33;22040;-87
2021/06/16 04:45:36;;;;;;;5.97;2.78;;;;;;;20.91;60.31;99788.41;4346464;33;20102;-88
2021/06/16 04:48:05;;;;;;;5.75;3.17;;;;;;;21.07;60.33;99788.97;4344233;33;30451;-88
2021/06/16 04:50:31;;;;;;;6.15;2.67;;;;;;;21.17;60.32;99786.47;4334615;33;20162;-88
2021/06/16 04:52:56;;;;;;;5.78;3.10;;;;;;;21.41;60.33;99778.50;4334193;33;25853;-89
2021/06/16 04:55:22;;;;;;;6.53;3.05;;;;;;;21.58;60.35;99783.38;4345061;33;20147;-88
2021/06/16 04:57:47;;;;;;;4.70;2.70;;;;;;;21.64;60.36;99777.59;4345167;33;20116;-88
2021/06/16 05:00:13;;;;;;;4.72;3.10;;;;;;;21.68;60.36;99780.84;4345408;33;20174;-88
2021/06/16 05:02:38;;;;;;;5.18;2.90;;;;;;;21.87;60.36;99777.59;4346218;33;20106;-88
2021/06/16 05:05:05;;;;;;;6.35;3.08;;;;;;;22.12;60.37;99776.56;4345357;33;20142;-88
2021/06/16 05:07:30;;;;;;;5.55;3.03;;;;;;;22.00;60.37;99776.53;4332418;33;20130;-88
2021/06/16 05:09:55;;;;;;;5.60;2.90;;;;;;;22.21;60.39;99784.59;4344618;33;21636;-88
2021/06/16 05:12:21;;;;;;;7.50;2.75;;;;;;;22.34;60.40;99784.47;4345900;33;20107;-89
2021/06/16 05:14:47;;;;;;;6.30;3.22;;;;;;;22.34;60.40;99780.03;4345038;33;20087;-88
2021/06/16 05:17:13;;;;;;;6.22;2.70;;;;;;;22.35;60.40;99784.34;4345859;33;20709;-89
2021/06/16 05:19:39;;;;;;;5.43;2.35;;;;;;;22.68;60.41;99780.78;4346199;33;20147;-89
2021/06/16 05:22:13;;;;;;;5.90;2.47;;;;;;;22.72;60.41;99780.56;4346623;33;23737;-89
2021/06/16 05:24:38;;;;;;;8.10;2.45;;;;;;;22.83;60.42;99783.19;4331933;33;20400;-89
2021/06/16 05:27:04;;;;;;;5.87;2.80;;;;;;;23.14;60.43;99789.44;4344799;33;20118;-89
2021/06/16 05:29:30;;;;;;;4.87;2.55;;;;;;;23.26;60.43;99783.12;4344494;33;20095;-89
2021/06/16 05:31:56;;;;;;;3.47;2.25;;;;;;;23.35;60.44;99786.78;4344002;33;27922;-89
2021/06/16 05:34:23;;;;;;;6.80;2.58;;;;;;;23.47;60.45;99791.94;4345368;33;20095;-89
2021/06/16 05:36:48;;;;;;;4.22;2.47;;;;;;;23.81;60.48;99784.59;4348220;33;20973;-89
2021/06/16 05:39:14;;;;;;;8.07;2.45;;;;;;;23.81;60.46;99783.75;4348122;33;20118;-89
2021/06/16 05:41:39;;;;;;;5.18;2.22;;;;;;;23.96;60.47;99777.12;4347051;33;20200;-90
2021/06/16 05:44:05;;;;;;;5.15;2.60;;;;;;;24.15;60.49;99781.66;4348281;33;20461;-89
2021/06/16 05:46:30;;;;;;;5.55;2.30;;;;;;;24.44;60.51;99785.28;4348847;33;20134;-89
2021/06/16 05:48:55;;;;;;;5.28;2.45;;;;;;;24.40;60.50;99778.56;4348794;33;20147;-89
2021/06/16 05:51:21;;;;;;;4.70;2.28;;;;;;;24.46;60.51;99779.81;4348693;33;20110;-89
2021/06/16 05:53:46;;;;;;;4.75;2.62;;;;;;;24.58;60.51;99783.19;4346767;33;20115;-89
2021/06/16 05:56:12;;;;;;;5.80;2.60;;;;;;;24.94;60.53;99781.69;4346111;33;20226;-88
2021/06/16 05:58:37;;;;;;;8.10;2.90;;;;;;;25.11;60.54;99783.69;4350021;32;20496;-89
2021/06/16 06:01:03;;;;;;;6.20;2.78;;;;;;;25.18;60.54;99790.13;4347934;32;20415;-88
2021/06/16 06:03:28;;;;;;;4.30;2.35;;;;;;;25.25;60.55;99783.25;4346670;33;20122;-89
2021/06/16 06:05:54;;;;;;;4.47;2.37;;;;;;;25.20;60.54;99787.34;4347084;33;20174;-89
2021/06/16 06:08:19;;;;;;;3.35;2.00;;;;;;;25.31;60.55;99787.16;4346694;33;20416;-89
2021/06/16 06:10:44;;;;;;;3.40;2.42;;;;;;;25.53;60.56;99786.84;4346561;33;20144;-89
2021/06/16 06:13:10;;;;;;;3.83;2.00;;;;;;;25.81;60.57;99782.47;4334185;33;20119;-89
2021/06/16 06:15:35;;;;;;;5.22;2.17;;;;;;;25.92;60.58;99776.09;4345698;33;31494;-88
2021/06/16 06:18:01;;;;;;;6.32;2.45;;;;;;;25.91;60.58;99783.28;4334163;33;20103;-89
2021/06/16 06:20:26;;;;;;;7.20;2.55;;;;;;;26.30;60.60;99785.78;4346248;33;20126;-88
2021/06/16 06:22:52;;;;;;;4.65;2.47;;;;;;;26.37;60.61;99786.88;4346407;33;20083;-88
2021/06/16 06:25:17;;;;;;;6.40;2.17;;;;;;;26.45;60.61;99789.63;4348059;32;20147;-89
2021/06/16 06:27:43;;;;;;;4.75;1.80;;;;;;;26.53;60.61;99792.41;4345953;33;20095;-88
2021/06/16 06:30:08;;;;;;;3.78;2.00;;;;;;;26.66;60.62;99792.03;4345453;33;20137;-89
2021/06/16 06:32:34;;;;;;;4.00;1.87;;;;;;;26.90;60.63;99799.44;4345964;33;20099;-89
2021/06/16 06:34:59;;;;;;;4.05;2.80;;;;;;;27.06;60.64;99794.31;4345556;33;20136;-89
2021/06/16 06:37:25;;;;;;;5.43;2.33;;;;;;;27.26;60.64;99797.66;4332932;33;24097;-89
2021/06/16 06:39:51;;;;;;;4.82;1.87;;;;;;;27.19;60.65;99800.06;4337595;33;20121;-90
2021/06/16 06:42:17;;;;;;;4.12;2.20;;;;;;;27.56;60.66;99798.19;4347388;33;20140;-91
2021/06/16 06:44:43;;;;;;;7.47;2.25;;;;;;;27.74;60.67;99796.34;4348363;33;20123;-90
2021/06/16 06:47:08;;;;;;;5.78;2.40;;;;;;;27.85;60.68;99793.41;4343014;33;20110;-89
2021/06/16 06:49:34;;;;;;;4.85;2.47;;;;;;;28.02;60.69;99799.69;4360824;32;20060;-89
2021/06/16 06:51:59;;;;;;;5.20;2.40;;;;;;;28.30;60.71;99801.16;4350268;33;20079;-92
2021/06/16 06:54:24;;;;;;;6.65;2.58;;;;;;;28.47;60.71;99802.06;4356178;33;20122;-91
2021/06/16 06:56:51;;;;;;;4.80;2.50;;;;;;;28.22;60.69;99794.94;4346312;33;20141;-91
2021/06/16 06:59:17;;;;;;;6.15;2.50;;;;;;;28.43;60.71;99790.84;4333382;33;20056;-90
2021/06/16 07:01:42;;;;;;;9.00;2.55;;;;;;;28.35;60.71;99792.66;4345130;33;24110;-91
2021/06/16 07:04:07;;;;;;;4.53;2.25;;;;;;;28.23;60.70;99796.59;4345817;32;20138;-93
2021/06/16 07:06:34;;;;;;;8.02;3.05;;;;;;;28.12;60.70;99792.34;4345571;33;20493;-92
2021/06/16 07:08:59;;;;;;;4.15;2.17;;;;;;;28.17;60.71;99792.75;4345751;33;20398;-92
2021/06/16 07:11:25;;;;;;;5.12;2.65;;;;;;;28.21;60.69;99786.06;4345743;33;20158;-90
2021/06/16 07:13:50;;;;;;;7.30;2.78;;;;;;;28.28;60.70;99789.78;4345415;33;20591;-90
2021/06/16 07:16:16;;;;;;;6.82;2.55;;;;;;;28.60;60.71;99788.22;4334556;33;20385;-90
2021/06/16 07:18:41;;;;;;;5.07;2.95;;;;;;;28.82;60.74;99797.47;4345751;33;20103;-91
2021/06/16 07:21:07;;;;;;;3.72;2.58;;;;;;;29.07;60.74;99787.63;4333423;33;20148;-91
2021/06/16 07:23:35;;;;;;;8.48;2.90;;;;;;;28.78;60.73;99786.25;4347059;33;20087;-90
2021/06/16 07:26:00;;;;;;;7.35;2.75;;;;;;;28.87;60.74;99792.50;4332616;33;21316;-90
2021/06/16 07:28:25;;;;;;;5.05;2.92;;;;;;;28.62;60.73;99794.22;4332763;33;21539;-91
2021/06/16 07:30:51;;;;;;;4.60;2.92;;;;;;;28.38;60.72;99784.28;4333293;33;20119;-90
2021/06/16 07:33:16;;;;;;;5.22;3.40;;;;;;;28.32;60.71;99792.97;4346118;33;20104;-91
2021/06/16 07:35:44;;;;;;;5.30;2.85;;;;;;;28.21;60.70;99793.25;4347399;33;20152;-92
2021/06/16 07:38:09;;;;;;;5.37;2.70;;;;;;;28.47;60.72;99803.91;4334390;33;20096;-92
2021/06/16 07:40:34;;;;;;;4.97;2.92;;;;;;;28.63;60.74;99795.94;4333575;33;21462;-91
2021/06/16 07:43:00;;;;;;;5.18;2.55;;;;;;;28.36;60.71;99797.84;4346251;33;20121;-92
2021/06/16 07:45:26;;;;;;;5.22;2.60;;;;;;;28.51;60.71;99805.25;4334137;33;20119;-91
2021/06/16 07:47:51;;;;;;;8.68;3.12;;;;;;;28.66;60.73;99796.44;4346139;33;20107;-92
2021/06/16 07:50:17;;;;;;;4.25;2.78;;;;;;;28.87;60.74;99796.03;4345808;33;20091;-92
2021/06/16 07:52:42;;;;;;;9.63;3.92;;;;;;;29.11;60.76;99789.00;4334063;33;20155;-94
2021/06/16 07:55:08;;;;;;;7.60;2.72;;;;;;;29.19;60.76;99791.69;4334144;33;20116;-90
2021/06/16 07:57:34;;;;;;;6.05;2.80;;;;;;;29.48;60.76;99797.38;4346675;33;20091;-89
2021/06/16 07:59:59;;;;;;;5.93;2.78;;;;;;;29.48;60.77;99783.12;4345414;33;20119;-90
2021/06/16 08:02:27;;;;;;;5.28;2.67;;;;;;;29.46;60.77;99783.31;4345538;33;20134;-90
2021/06/16 08:04:53;;;;;;;6.93;2.75;;;;;;;29.39;60.76;99794.84;4345736;33;20114;-89
2021/06/16 08:07:20;;;;;;;5.03;2.60;;;;;;;29.34;60.77;99806.09;4333555;33;20087;-91
2021/06/16 08:09:45;;;;;;;4.93;2.70;;;;;;;29.56;60.78;99793.84;4333118;33;20099;-89
2021/06/16 08:12:11;;;;;;;5.85;2.83;;;;;;;29.70;60.78;99781.59;4344835;33;20150;-91
2021/06/16 08:14:43;;;;;;;5.10;2.47;;;;;;;29.83;60.79;99790.78;4333309;33;20145;-92
2021/06/16 08:17:08;;;;;;;8.02;2.62;;;;;;;29.74;60.79;99789.13;4351337;33;20056;-93
2021/06/16 08:19:34;;;;;;;5.87;2.65;;;;;;;29.88;60.80;99788.44;4334561;33;20158;-92
2021/06/16 08:22:00;;;;;;;6.00;2.60;;;;;;;29.73;60.78;99786.63;4333547;33;20141;-92
2021/06/16 08:24:27;;;;;;;6.72;2.72;;;;;;;30.14;60.80;99790.03;4336892;33;20103;-95
2021/06/16 08:26:53;;;;;;;6.47;2.80;;;;;;;30.40;60.82;99797.81;4325312;33;20117;-96
2021/06/16 08:29:22;;;;;;;5.03;2.77;;;;;;;30.41;60.82;99786.91;4351657;33;20117;-95
2021/06/16 08:31:48;;;;;;;6.10;3.12;;;;;;;30.34;60.81;99793.16;4349603;33;20258;-96
2021/06/16 08:34:13;;;;;;;5.43;2.12;;;;;;;30.08;60.80;99788.91;4336720;33;20103;-96
2021/06/16 08:36:41;;;;;;;9.63;2.53;;;;;;;30.25;60.81;99793.16;4337371;33;20126;-96
2021/06/16 08:39:06;;;;;;;7.93;2.78;;;;;;;30.39;60.82;99790.78;4341976;33;20082;-96
2021/06/16 08:41:33;;;;;;;7.07;2.97;;;;;;;30.48;60.83;99789.72;4340075;33;20111;-96
2021/06/16 08:43:58;;;;;;;8.65;2.83;;;;;;;30.39;60.82;99796.97;4343931;33;20090;-96
2021/06/16 08:46:24;;;;;;;6.68;2.03;;;;;;;30.55;60.83;99798.75;4355847;33;20106;-95
2021/06/16 08:48:51;;;;;;;5.30;2.05;;;;;;;30.77;60.84;99789.91;4340831;33;20084;-96
2021/06/16 08:51:16;;;;;;;5.35;2.15;;;;;;;30.64;60.83;99797.72;4340140;33;20122;-94
2021/06/16 08:53:45;;;;;;;4.57;2.62;;;;;;;30.65;60.83;99785.97;4334894;33;20111;-93
2021/06/16 08:56:11;;;;;;;4.87;2.40;;;;;;;30.76;60.84;99782.88;4334558;33;20177;-93
2021/06/16 08:58:38;;;;;;;7.20;2.42;;;;;;;31.04;60.85;99782.34;4334050;33;20080;-92
2021/06/16 09:01:04;;;;;;;4.53;2.42;;;;;;;31.22;60.86;99782.88;4345957;33;20139;-92
2021/06/16 09:03:30;;;;;;;3.90;2.47;;;;;;;31.30;60.86;99780.13;4346498;33;20674;-94
2021/06/16 09:06:05;;;;;;;4.70;2.00;;;;;;;31.45;60.87;99770.22;4332816;33;20421;-90
2021/06/16 09:08:31;;;;;;;3.83;2.15;;;;;;;31.14;60.85;99785.59;4344982;33;20107;-90
2021/06/16 09:10:57;;;;;;;6.53;1.90;;;;;;;30.89;60.84;99787.66;4347556;33;20163;-92
2021/06/16 09:13:24;;;;;;;6.10;2.00;;;;;;;30.68;60.84;99788.28;4334069;33;20131;-90
2021/06/16 09:15:50;;;;;;;3.42;2.05;;;;;;;30.56;60.83;99792.38;4346605;33;20157;-92
2021/06/16 09:18:16;;;;;;;4.18;2.45;;;;;;;30.41;60.82;99794.13;4334274;33;26360;-93
2021/06/16 09:20:45;;;;;;;5.65;2.37;;;;;;;30.32;60.81;99804.06;4335895;33;20108;-92
2021/06/16 09:23:13;;;;;;;4.43;2.30;;;;;;;30.58;60.82;99800.25;4348150;33;20161;-92
2021/06/16 09:25:40;;;;;;;4.97;2.53;;;;;;;30.71;60.84;99805.91;4350146;33;21341;-94
2021/06/16 09:28:06;;;;;;;8.68;2.22;;;;;;;30.73;60.84;99803.87;4337522;33;20127;-88
2021/06/16 09:30:34;;;;;;;4.05;2.17;;;;;;;30.53;60.83;99808.84;4351327;33;20594;-91
2021/06/16 09:33:07;;;;;;;5.15;2.72;;;;;;;30.16;60.81;99799.59;4348345;33;20103;-89
2021/06/16 09:35:34;;;;;;;3.87;2.50;;;;;;;30.53;60.84;99795.41;4335885;33;20087;-92
2021/06/16 09:38:00;;;;;;;5.10;2.30;;;;;;;30.75;60.83;99791.09;4337104;33;20095;-90
2021/06/16 09:40:37;;;;;;;6.28;2.35;;;;;;;30.96;60.85;99787.75;4342634;33;20123;-90
2021/06/16 09:43:11;;;;;;;6.07;2.17;;;;;;;31.02;60.85;99790.59;4359334;32;20060;-92
2021/06/16 09:45:37;;;;;;;4.45;2.30;;;;;;;30.88;60.85;99780.59;4358053;33;20775;-90
2021/06/16 09:48:18;;;;;;;6.45;2.03;;;;;;;30.85;60.85;99789.03;4351386;33;20103;-90
2021/06/16 09:50:43;;;;;;;8.70;2.30;;;;;;;30.59;60.83;99796.56;4334815;33;20099;-90
2021/06/16 09:53:09;;;;;;;6.07;2.40;;;;;;;30.34;60.82;99783.25;4347582;33;20396;-91
2021/06/16 09:55:35;;;;;;;2.95;1.42;;;;;;;30.18;60.81;99805.63;4347459;33;20108;-91
2021/06/16 09:58:07;;;;;;;3.15;1.67;;;;;;;30.18;60.80;99789.53;4347213;33;20095;-92
2021/06/16 10:00:44;;;;;;;2.78;1.65;;;;;;;29.82;60.80;99793.66;4346461;33;20158;-90
2021/06/16 10:03:17;;;;;;;4.82;2.20;;;;;;;30.13;60.82;99791.06;4347083;33;20106;-91
2021/06/16 10:06:08;;;;;;;2.50;1.67;;;;;;;30.48;60.83;99792.41;4334273;33;20051;-91
2021/06/16 10:08:39;;;;;;;2.80;2.05;;;;;;;30.68;60.85;99790.13;4337128;33;20103;-92
2021/06/16 10:11:07;;;;;;;2.80;2.03;;;;;;;30.86;60.85;99785.31;4334926;33;20179;-93
2021/06/16 10:13:32;;;;;;;5.97;1.98;;;;;;;31.10;60.86;99784.31;4334799;33;20115;-92
2021/06/16 10:15:58;;;;;;;3.70;1.90;;;;;;;31.20;60.86;99784.06;4346688;33;22176;-93
2021/06/16 10:18:24;;;;;;;3.25;1.87;;;;;;;31.14;60.85;99782.91;4334627;33;20559;-91
2021/06/16 10:20:50;;;;;;;7.32;2.00;;;;;;;31.13;60.86;99786.63;4334097;33;20151;-90
2021/06/16 10:23:16;;;;;;;3.05;1.85;;;;;;;30.68;60.85;99784.75;4347186;33;20119;-93
2021/06/16 10:25:42;;;;;;;2.75;1.87;;;;;;;30.48;60.84;99777.12;4334480;33;20147;-90
2021/06/16 10:28:07;;;;;;;5.82;1.98;;;;;;;30.48;60.83;99784.34;4349313;32;20449;-91
2021/06/16 10:30:40;;;;;;;4.20;1.58;;;;;;;30.52;60.83;99772.22;4333899;33;20123;-89
2021/06/16 10:33:29;;;;;;;4.40;2.35;;;;;;;30.69;60.84;99781.06;4346384;33;20104;-93
2021/06/16 10:36:21;;;;;;;3.87;1.92;;;;;;;30.83;60.85;99766.88;4335199;33;20468;-89
2021/06/16 10:39:02;;;;;;;5.25;2.30;;;;;;;30.91;60.86;99765.97;4321934;33;20104;-89
2021/06/16 10:41:37;;;;;;;4.10;1.90;;;;;;;30.87;60.85;99770.88;4351668;33;20125;-90
2021/06/16 10:44:30;;;;;;;5.15;2.72;;;;;;;30.68;60.84;99769.47;4350234;32;20118;-92
2021/06/16 10:46:58;;;;;;;3.97;2.10;;;;;;;30.63;60.84;99776.41;4340893;33;20162;-93
2021/06/16 10:49:32;;;;;;;6.37;1.90;;;;;;;30.65;60.83;99783.25;4346831;33;20089;-92
2021/06/16 10:51:58;;;;;;;4.05;1.95;;;;;;;30.67;60.85;99769.66;4347337;33;20100;-91
2021/06/16 10:54:25;;;;;;;3.22;2.10;;;;;;;30.64;60.84;99773.53;4346604;33;20121;-89
2021/06/16 10:57:07;;;;;;;3.08;1.80;;;;;;;30.64;60.84;99767.31;4346491;33;20154;-93
2021/06/16 10:59:48;;;;;;;9.02;2.45;;;;;;;30.88;60.85;99752.88;4333702;33;20130;-92
2021/06/16 11:02:18;;;;;;;3.58;2.10;;;;;;;31.33;60.87;99763.63;4334004;33;20199;-90
2021/06/16 11:04:44;;;;;;;4.90;2.25;;;;;;;31.38;60.88;99755.00;4347232;33;20095;-92
2021/06/16 11:07:31;;;;;;;3.50;2.17;;;;;;;31.35;60.87;99744.59;4336206;33;20160;-92
2021/06/16 11:09:58;;;;;;;3.97;2.60;;;;;;;31.32;60.88;99753.88;4334313;33;20845;-91
2021/06/16 11:12:28;;;;;;;4.03;2.30;;;;;;;31.31;60.88;99751.38;4345536;33;20136;-90
2021/06/16 11:14:53;;;;;;;5.12;2.33;;;;;;;31.28;60.87;99749.06;4334244;33;20217;-92
2021/06/16 11:17:27;;;;;;;4.10;2.40;;;;;;;31.29;60.87;99745.34;4346200;33;20469;-93
2021/06/16 11:19:59;;;;;;;4.60;2.10;;;;;;;31.37;60.87;99747.94;4334291;33;20534;-91
2021/06/16 11:22:24;;;;;;;8.10;2.45;;;;;;;31.58;60.88;99749.94;4333805;33;20111;-91
2021/06/16 11:25:12;;;;;;;4.73;2.13;;;;;;;31.48;60.88;99742.13;4347740;33;20126;-92
2021/06/16 11:27:50;;;;;;;7.47;2.12;;;;;;;31.49;60.88;99735.72;4336885;33;20169;-93
2021/06/16 11:30:37;;;;;;;5.15;2.10;;;;;;;31.72;60.89;99741.91;4347703;33;20105;-91
2021/06/16 11:33:12;;;;;;;6.03;2.55;;;;;;;31.72;60.89;99741.91;4330600;33;20107;-90
2021/06/16 11:36:19;;;;;;;6.45;2.37;;;;;;;31.55;60.88;99736.84;4348032;33;20122;-92